Weather at McGrath Airport

Public forecast

Using degrees Fahrenheit for public forecast. Weather courtesy of forecast.io.

Current aviation weather report (METAR) for McGrath Airport

Report is more than 6 hours old.

Retrieved 2021/08/05 01:53 UTC (10 hours ago):

PAMC 050153Z 14008KT 10SM SKC 27/08 A2965

Aviation forecast (TAF) for McGrath Airport

Retrieved 2021/08/05 12:38 UTC (0 seconds ago):

TAF PAMC 051136Z 0512/0612 14008KT P6SM SCT100 FM052100 VRB05KT P6SM VCTS SCT060CB BKN100 FM060000 24006KT P6SM -SHRA VCTS SCT060CB BKN100 AMD NOT SKED